sensor_id;sensor_type;location;lat;lon;timestamp;pressure;altitude;pressure_sealevel;temperature;humidity
42067;BME280;27734;47.028;28.820;2023-01-29T00:00:34;100699.95;;;-2.05;83.25
42067;BME280;27734;47.028;28.820;2023-01-29T00:03:25;100687.98;;;-2.05;82.70
42067;BME280;27734;47.028;28.820;2023-01-29T00:05:56;100693.27;;;-2.03;82.80
42067;BME280;27734;47.028;28.820;2023-01-29T00:08:27;100692.38;;;-2.04;83.44
42067;BME280;27734;47.028;28.820;2023-01-29T00:11:02;100690.69;;;-2.03;83.01
42067;BME280;27734;47.028;28.820;2023-01-29T00:13:34;100693.40;;;-2.02;83.28
42067;BME280;27734;47.028;28.820;2023-01-29T00:16:05;100696.73;;;-2.03;83.69
42067;BME280;27734;47.028;28.820;2023-01-29T00:18:39;100694.30;;;-2.01;83.04
42067;BME280;27734;47.028;28.820;2023-01-29T00:21:12;100687.50;;;-2.01;84.03
42067;BME280;27734;47.028;28.820;2023-01-29T00:23:44;100692.64;;;-2.01;83.48
42067;BME280;27734;47.028;28.820;2023-01-29T00:26:16;100693.54;;;-2.00;83.23
42067;BME280;27734;47.028;28.820;2023-01-29T00:28:48;100693.54;;;-2.00;83.14
42067;BME280;27734;47.028;28.820;2023-01-29T00:31:20;100693.54;;;-2.00;83.71
42067;BME280;27734;47.028;28.820;2023-01-29T00:33:52;100690.08;;;-2.01;83.76
42067;BME280;27734;47.028;28.820;2023-01-29T00:36:24;100691.09;;;-1.99;83.19
42067;BME280;27734;47.028;28.820;2023-01-29T00:38:57;100689.42;;;-1.98;83.75
42067;BME280;27734;47.028;28.820;2023-01-29T00:41:32;100697.13;;;-1.98;84.47
42067;BME280;27734;47.028;28.820;2023-01-29T00:44:21;100698.81;;;-1.99;83.14
42067;BME280;27734;47.028;28.820;2023-01-29T00:47:10;100695.63;;;-1.96;83.96
42067;BME280;27734;47.028;28.820;2023-01-29T00:49:55;100699.98;;;-1.95;83.28
42067;BME280;27734;47.028;28.820;2023-01-29T00:52:27;100702.69;;;-1.93;84.00
42067;BME280;27734;47.028;28.820;2023-01-29T00:54:59;100703.48;;;-1.94;83.00
42067;BME280;27734;47.028;28.820;2023-01-29T00:57:32;100702.82;;;-1.92;83.24
42067;BME280;27734;47.028;28.820;2023-01-29T01:00:06;100704.64;;;-1.91;82.91
42067;BME280;27734;47.028;28.820;2023-01-29T01:02:38;100700.39;;;-1.90;83.74
42067;BME280;27734;47.028;28.820;2023-01-29T01:05:29;100698.73;;;-1.90;83.08
42067;BME280;27734;47.028;28.820;2023-01-29T01:08:01;100695.38;;;-1.89;83.73
42067;BME280;27734;47.028;28.820;2023-01-29T01:10:33;100698.88;;;-1.88;82.53
42067;BME280;27734;47.028;28.820;2023-01-29T01:13:07;100705.80;;;-1.87;82.89
42067;BME280;27734;47.028;28.820;2023-01-29T01:15:39;100702.34;;;-1.88;83.42
42067;BME280;27734;47.028;28.820;2023-01-29T01:18:10;100700.52;;;-1.89;83.43
42067;BME280;27734;47.028;28.820;2023-01-29T01:20:44;100703.09;;;-1.89;82.33
42067;BME280;27734;47.028;28.820;2023-01-29T01:23:20;100693.73;;;-1.88;82.42
42067;BME280;27734;47.028;28.820;2023-01-29T01:25:51;100700.52;;;-1.89;82.27
42067;BME280;27734;47.028;28.820;2023-01-29T01:28:22;100694.75;;;-1.86;83.11
42067;BME280;27734;47.028;28.820;2023-01-29T01:30:53;100697.33;;;-1.86;82.70
42067;BME280;27734;47.028;28.820;2023-01-29T01:33:25;100686.15;;;-1.87;82.95
42067;BME280;27734;47.028;28.820;2023-01-29T01:35:56;100688.86;;;-1.85;83.68
42067;BME280;27734;47.028;28.820;2023-01-29T01:38:31;100688.86;;;-1.85;82.75
42067;BME280;27734;47.028;28.820;2023-01-29T01:41:02;100690.64;;;-1.84;83.43
42067;BME280;27734;47.028;28.820;2023-01-29T01:46:40;100688.06;;;-1.84;81.96
42067;BME280;27734;47.028;28.820;2023-01-29T01:49:15;100684.73;;;-1.83;82.21
42067;BME280;27734;47.028;28.820;2023-01-29T01:51:55;100690.64;;;-1.84;82.68
42067;BME280;27734;47.028;28.820;2023-01-29T01:54:30;100684.60;;;-1.85;82.38
42067;BME280;27734;47.028;28.820;2023-01-29T01:57:01;100695.78;;;-1.84;82.65
42067;BME280;27734;47.028;28.820;2023-01-29T01:59:39;100688.06;;;-1.84;82.78
42067;BME280;27734;47.028;28.820;2023-01-29T02:02:10;100707.00;;;-1.84;83.26
42067;BME280;27734;47.028;28.820;2023-01-29T02:04:59;100694.13;;;-1.84;83.06
42067;BME280;27734;47.028;28.820;2023-01-29T02:07:49;100707.89;;;-1.83;82.30
42067;BME280;27734;47.028;28.820;2023-01-29T02:10:42;100705.18;;;-1.85;82.53
42067;BME280;27734;47.028;28.820;2023-01-29T02:13:14;100696.58;;;-1.85;82.79
42067;BME280;27734;47.028;28.820;2023-01-29T02:15:47;100702.61;;;-1.85;82.41
42067;BME280;27734;47.028;28.820;2023-01-29T02:18:20;100703.50;;;-1.84;82.59
42067;BME280;27734;47.028;28.820;2023-01-29T02:21:02;100705.18;;;-1.85;82.77
42067;BME280;27734;47.028;28.820;2023-01-29T02:24:06;100705.18;;;-1.85;82.96
42067;BME280;27734;47.028;28.820;2023-01-29T02:26:52;100716.36;;;-1.84;82.13
42067;BME280;27734;47.028;28.820;2023-01-29T02:29:29;100710.19;;;-1.86;81.97
42067;BME280;27734;47.028;28.820;2023-01-29T02:32:13;100712.77;;;-1.86;82.24
42067;BME280;27734;47.028;28.820;2023-01-29T02:34:55;100714.72;;;-1.84;83.18
42067;BME280;27734;47.028;28.820;2023-01-29T02:37:53;100709.44;;;-1.85;82.82
42067;BME280;27734;47.028;28.820;2023-01-29T02:40:30;100714.58;;;-1.85;82.45
42067;BME280;27734;47.028;28.820;2023-01-29T02:43:18;100719.72;;;-1.85;82.54
42067;BME280;27734;47.028;28.820;2023-01-29T02:46:01;100717.02;;;-1.87;82.37
42067;BME280;27734;47.028;28.820;2023-01-29T02:48:40;100722.02;;;-1.88;82.46
42067;BME280;27734;47.028;28.820;2023-01-29T02:51:19;100719.45;;;-1.88;82.08
42067;BME280;27734;47.028;28.820;2023-01-29T02:53:56;100725.35;;;-1.89;81.78
42067;BME280;27734;47.028;28.820;2023-01-29T02:56:34;100728.81;;;-1.89;82.44
42067;BME280;27734;47.028;28.820;2023-01-29T02:59:10;100727.92;;;-1.89;82.37
42067;BME280;27734;47.028;28.820;2023-01-29T03:01:47;100729.74;;;-1.88;81.69
42067;BME280;27734;47.028;28.820;2023-01-29T03:04:21;100730.77;;;-1.86;82.26
42067;BME280;27734;47.028;28.820;2023-01-29T03:06:58;100737.73;;;-1.85;82.75
42067;BME280;27734;47.028;28.820;2023-01-29T03:09:35;100729.88;;;-1.87;82.67
42067;BME280;27734;47.028;28.820;2023-01-29T03:12:12;100732.45;;;-1.87;81.89
42067;BME280;27734;47.028;28.820;2023-01-29T03:14:59;100732.59;;;-1.85;81.71
42067;BME280;27734;47.028;28.820;2023-01-29T03:17:53;100729.22;;;-1.84;81.49
42067;BME280;27734;47.028;28.820;2023-01-29T03:20:25;100734.37;;;-1.84;82.75
42067;BME280;27734;47.028;28.820;2023-01-29T03:23:03;100730.91;;;-1.85;81.65
42067;BME280;27734;47.028;28.820;2023-01-29T03:25:36;100737.73;;;-1.85;81.13
42067;BME280;27734;47.028;28.820;2023-01-29T03:28:30;100734.23;;;-1.86;81.29
42067;BME280;27734;47.028;28.820;2023-01-29T03:31:20;100732.45;;;-1.87;82.40
42067;BME280;27734;47.028;28.820;2023-01-29T03:34:12;100740.16;;;-1.87;81.53
42067;BME280;27734;47.028;28.820;2023-01-29T03:36:50;100732.31;;;-1.88;81.39
42067;BME280;27734;47.028;28.820;2023-01-29T03:39:27;100737.45;;;-1.88;81.69
42067;BME280;27734;47.028;28.820;2023-01-29T03:42:01;100746.69;;;-1.90;81.59
42067;BME280;27734;47.028;28.820;2023-01-29T03:44:40;100731.39;;;-1.89;82.36
42067;BME280;27734;47.028;28.820;2023-01-29T03:47:26;100738.22;;;-1.89;82.26
42067;BME280;27734;47.028;28.820;2023-01-29T03:50:04;100749.39;;;-1.89;81.60
42067;BME280;27734;47.028;28.820;2023-01-29T03:52:43;100751.69;;;-1.92;81.95
42067;BME280;27734;47.028;28.820;2023-01-29T03:55:19;100761.09;;;-1.92;81.45
42067;BME280;27734;47.028;28.820;2023-01-29T03:57:57;100747.81;;;-1.97;81.84
42067;BME280;27734;47.028;28.820;2023-01-29T04:00:33;100746.92;;;-1.97;81.18
42067;BME280;27734;47.028;28.820;2023-01-29T04:03:13;100762.22;;;-1.99;81.16
42067;BME280;27734;47.028;28.820;2023-01-29T04:05:50;100763.86;;;-2.00;80.85
42067;BME280;27734;47.028;28.820;2023-01-29T04:08:38;100767.09;;;-2.02;81.20
42067;BME280;27734;47.028;28.820;2023-01-29T04:11:13;100755.12;;;-2.02;82.09
42067;BME280;27734;47.028;28.820;2023-01-29T04:13:47;100772.84;;;-2.05;80.91
42067;BME280;27734;47.028;28.820;2023-01-29T04:16:24;100762.42;;;-2.06;82.25
42067;BME280;27734;47.028;28.820;2023-01-29T04:19:16;100769.11;;;-2.08;81.51
42067;BME280;27734;47.028;28.820;2023-01-29T04:21:49;100771.67;;;-2.08;81.01
42067;BME280;27734;47.028;28.820;2023-01-29T04:24:23;100770.89;;;-2.07;82.42
42067;BME280;27734;47.028;28.820;2023-01-29T04:27:06;100774.53;;;-2.05;81.26
42067;BME280;27734;47.028;28.820;2023-01-29T04:29:53;100775.42;;;-2.05;81.50
42067;BME280;27734;47.028;28.820;2023-01-29T04:32:31;100773.73;;;-2.04;82.41
42067;BME280;27734;47.028;28.820;2023-01-29T04:35:03;100775.55;;;-2.03;81.22
42067;BME280;27734;47.028;28.820;2023-01-29T04:37:44;100769.66;;;-2.02;81.73
42067;BME280;27734;47.028;28.820;2023-01-29T04:40:22;100771.30;;;-2.03;81.16
42067;BME280;27734;47.028;28.820;2023-01-29T04:43:01;100776.59;;;-2.01;81.24
42067;BME280;27734;47.028;28.820;2023-01-29T04:45:40;100777.52;;;-2.01;81.62
42067;BME280;27734;47.028;28.820;2023-01-29T04:48:20;100775.83;;;-2.00;81.75
42067;BME280;27734;47.028;28.820;2023-01-29T04:50:56;100778.55;;;-1.99;81.32
42067;BME280;27734;47.028;28.820;2023-01-29T04:53:38;100781.25;;;-1.97;82.33
42067;BME280;27734;47.028;28.820;2023-01-29T04:56:18;100783.96;;;-1.95;81.51
42067;BME280;27734;47.028;28.820;2023-01-29T04:58:53;100780.63;;;-1.94;81.36
42067;BME280;27734;47.028;28.820;2023-01-29T05:01:29;100778.20;;;-1.93;82.01
42067;BME280;27734;47.028;28.820;2023-01-29T05:04:04;100776.52;;;-1.92;82.07
42067;BME280;27734;47.028;28.820;2023-01-29T05:06:37;100773.95;;;-1.92;81.74
42067;BME280;27734;47.028;28.820;2023-01-29T05:09:09;100784.23;;;-1.92;81.71
42067;BME280;27734;47.028;28.820;2023-01-29T05:11:43;100779.84;;;-1.93;80.69
42067;BME280;27734;47.028;28.820;2023-01-29T05:14:18;100781.80;;;-1.91;81.06
42067;BME280;27734;47.028;28.820;2023-01-29T05:16:52;100796.48;;;-1.90;80.78
42067;BME280;27734;47.028;28.820;2023-01-29T05:19:25;100790.55;;;-1.89;81.60
42067;BME280;27734;47.028;28.820;2023-01-29T05:21:57;100796.48;;;-1.90;81.25
42067;BME280;27734;47.028;28.820;2023-01-29T05:24:28;100791.34;;;-1.90;80.98
42067;BME280;27734;47.028;28.820;2023-01-29T05:26:59;100800.84;;;-1.89;80.79
42067;BME280;27734;47.028;28.820;2023-01-29T05:29:49;100805.09;;;-1.89;80.80
42067;BME280;27734;47.028;28.820;2023-01-29T05:32:20;100811.13;;;-1.89;81.28
42067;BME280;27734;47.028;28.820;2023-01-29T05:34:51;100807.80;;;-1.88;81.30
42067;BME280;27734;47.028;28.820;2023-01-29T05:37:22;100807.80;;;-1.88;81.44
42067;BME280;27734;47.028;28.820;2023-01-29T05:40:00;100805.23;;;-1.88;80.59
42067;BME280;27734;47.028;28.820;2023-01-29T05:42:31;100811.27;;;-1.87;81.12
42067;BME280;27734;47.028;28.820;2023-01-29T05:45:02;100811.27;;;-1.87;80.59
42067;BME280;27734;47.028;28.820;2023-01-29T05:47:34;100806.13;;;-1.87;80.34
42067;BME280;27734;47.028;28.820;2023-01-29T05:50:06;100821.70;;;-1.86;80.24
42067;BME280;27734;47.028;28.820;2023-01-29T05:52:38;100809.63;;;-1.87;80.81
42067;BME280;27734;47.028;28.820;2023-01-29T05:55:10;100818.98;;;-1.87;80.41
42067;BME280;27734;47.028;28.820;2023-01-29T05:57:41;100818.98;;;-1.87;81.71
42067;BME280;27734;47.028;28.820;2023-01-29T06:00:15;100821.55;;;-1.87;80.58
42067;BME280;27734;47.028;28.820;2023-01-29T06:02:46;100835.34;;;-1.87;80.31
42067;BME280;27734;47.028;28.820;2023-01-29T06:05:18;100830.20;;;-1.87;80.33
42067;BME280;27734;47.028;28.820;2023-01-29T06:07:49;100834.42;;;-1.87;80.87
42067;BME280;27734;47.028;28.820;2023-01-29T06:10:21;100829.41;;;-1.86;80.77
42067;BME280;27734;47.028;28.820;2023-01-29T06:12:53;100831.98;;;-1.86;81.24
42067;BME280;27734;47.028;28.820;2023-01-29T06:15:24;100844.98;;;-1.84;81.41
42067;BME280;27734;47.028;28.820;2023-01-29T06:17:55;100833.05;;;-1.84;81.85
42067;BME280;27734;47.028;28.820;2023-01-29T06:20:27;100837.69;;;-1.79;81.72
42067;BME280;27734;47.028;28.820;2023-01-29T06:22:58;100837.06;;;-1.77;81.59
42067;BME280;27734;47.028;28.820;2023-01-29T06:25:30;100839.16;;;-1.73;81.69
42067;BME280;27734;47.028;28.820;2023-01-29T06:28:01;100843.05;;;-1.68;81.73
42067;BME280;27734;47.028;28.820;2023-01-29T06:30:32;100834.05;;;-1.63;81.59
42067;BME280;27734;47.028;28.820;2023-01-29T06:33:03;100831.89;;;-1.58;81.70
42067;BME280;27734;47.028;28.820;2023-01-29T06:35:35;100844.28;;;-1.54;81.79
42067;BME280;27734;47.028;28.820;2023-01-29T06:38:06;100838.61;;;-1.50;81.32
42067;BME280;27734;47.028;28.820;2023-01-29T06:40:38;100846.61;;;-1.47;81.96
42067;BME280;27734;47.028;28.820;2023-01-29T06:43:09;100844.45;;;-1.42;80.83
42067;BME280;27734;47.028;28.820;2023-01-29T06:45:47;100844.72;;;-1.39;81.14
42067;BME280;27734;47.028;28.820;2023-01-29T06:48:18;100844.09;;;-1.36;81.72
42067;BME280;27734;47.028;28.820;2023-01-29T06:50:50;100837.41;;;-1.34;80.77
42067;BME280;27734;47.028;28.820;2023-01-29T06:53:23;100838.46;;;-1.32;81.42
42067;BME280;27734;47.028;28.820;2023-01-29T06:55:55;100847.35;;;-1.29;81.34
42067;BME280;27734;47.028;28.820;2023-01-29T06:58:26;100843.23;;;-1.27;80.32
42067;BME280;27734;47.028;28.820;2023-01-29T07:01:03;100841.06;;;-1.22;81.15
42067;BME280;27734;47.028;28.820;2023-01-29T07:03:35;100832.84;;;-1.18;81.44
42067;BME280;27734;47.028;28.820;2023-01-29T07:06:07;100841.11;;;-1.12;80.74
42067;BME280;27734;47.028;28.820;2023-01-29T07:08:39;100841.25;;;-1.10;81.07
42067;BME280;27734;47.028;28.820;2023-01-29T07:11:13;100852.22;;;-1.02;81.12
42067;BME280;27734;47.028;28.820;2023-01-29T07:13:44;100841.52;;;-0.97;80.57
42067;BME280;27734;47.028;28.820;2023-01-29T07:16:15;100854.05;;;-0.91;80.17
42067;BME280;27734;47.028;28.820;2023-01-29T07:18:47;100860.76;;;-0.83;80.74
42067;BME280;27734;47.028;28.820;2023-01-29T07:21:19;100855.38;;;-0.76;80.57
42067;BME280;27734;47.028;28.820;2023-01-29T07:23:50;100853.47;;;-0.68;80.00
42067;BME280;27734;47.028;28.820;2023-01-29T07:26:21;100865.06;;;-0.63;79.90
42067;BME280;27734;47.028;28.820;2023-01-29T07:28:52;100866.65;;;-0.55;80.60
42067;BME280;27734;47.028;28.820;2023-01-29T07:31:23;100860.33;;;-0.48;79.71
42067;BME280;27734;47.028;28.820;2023-01-29T07:33:55;100869.22;;;-0.44;79.74
42067;BME280;27734;47.028;28.820;2023-01-29T07:36:26;100860.19;;;-0.39;79.58
42067;BME280;27734;47.028;28.820;2023-01-29T07:38:58;100850.39;;;-0.33;79.46
42067;BME280;27734;47.028;28.820;2023-01-29T07:41:30;100866.39;;;-0.27;79.05
42067;BME280;27734;47.028;28.820;2023-01-29T07:44:05;100856.46;;;-0.22;80.12
42067;BME280;27734;47.028;28.820;2023-01-29T07:46:37;100864.72;;;-0.16;79.83
42067;BME280;27734;47.028;28.820;2023-01-29T07:49:16;100880.32;;;-0.14;78.63
42067;BME280;27734;47.028;28.820;2023-01-29T07:51:47;100863.95;;;-0.15;78.19
42067;BME280;27734;47.028;28.820;2023-01-29T07:54:18;100873.77;;;-0.11;78.73
42067;BME280;27734;47.028;28.820;2023-01-29T07:56:50;100884.34;;;-0.08;79.06
42067;BME280;27734;47.028;28.820;2023-01-29T07:59:21;100864.09;;;-0.03;78.85
42067;BME280;27734;47.028;28.820;2023-01-29T08:01:52;100867.82;;;0.01;78.32
42067;BME280;27734;47.028;28.820;2023-01-29T08:04:24;100862.53;;;-0.01;77.82
42067;BME280;27734;47.028;28.820;2023-01-29T08:06:55;100875.69;;;0.02;77.85
42067;BME280;27734;47.028;28.820;2023-01-29T08:09:26;100874.13;;;0.04;77.92
42067;BME280;27734;47.028;28.820;2023-01-29T08:11:58;100873.50;;;0.07;79.17
42067;BME280;27734;47.028;28.820;2023-01-29T08:14:29;100872.95;;;0.11;78.29
42067;BME280;27734;47.028;28.820;2023-01-29T08:17:00;100873.21;;;0.14;78.77
42067;BME280;27734;47.028;28.820;2023-01-29T08:19:31;100874.77;;;0.12;77.60
42067;BME280;27734;47.028;28.820;2023-01-29T08:22:03;100879.30;;;0.14;77.53
42067;BME280;27734;47.028;28.820;2023-01-29T08:24:35;100875.28;;;0.18;77.69
42067;BME280;27734;47.028;28.820;2023-01-29T08:27:06;100869.36;;;0.19;78.19
42067;BME280;27734;47.028;28.820;2023-01-29T08:29:37;100867.16;;;0.13;76.73
42067;BME280;27734;47.028;28.820;2023-01-29T08:32:11;100868.30;;;0.17;77.62
42067;BME280;27734;47.028;28.820;2023-01-29T08:34:42;100870.12;;;0.18;77.13
42067;BME280;27734;47.028;28.820;2023-01-29T08:37:13;100868.56;;;0.20;77.52
42067;BME280;27734;47.028;28.820;2023-01-29T08:39:44;100881.20;;;0.27;76.31
42067;BME280;27734;47.028;28.820;2023-01-29T08:42:15;100872.27;;;0.44;76.67
42067;BME280;27734;47.028;28.820;2023-01-29T08:44:47;100872.21;;;0.65;77.02
42067;BME280;27734;47.028;28.820;2023-01-29T08:47:18;100886.38;;;0.80;75.73
42067;BME280;27734;47.028;28.820;2023-01-29T08:49:49;100867.45;;;0.92;75.95
42067;BME280;27734;47.028;28.820;2023-01-29T08:52:20;100853.36;;;0.98;76.53
42067;BME280;27734;47.028;28.820;2023-01-29T08:54:51;100859.30;;;0.97;74.83
42067;BME280;27734;47.028;28.820;2023-01-29T08:57:23;100859.05;;;0.94;74.56
42067;BME280;27734;47.028;28.820;2023-01-29T08:59:54;100854.25;;;0.99;74.97
42067;BME280;27734;47.028;28.820;2023-01-29T09:02:25;100853.85;;;1.04;74.45
42067;BME280;27734;47.028;28.820;2023-01-29T09:04:57;100850.34;;;1.04;74.20
42067;BME280;27734;47.028;28.820;2023-01-29T09:07:29;100859.02;;;1.04;74.15
42067;BME280;27734;47.028;28.820;2023-01-29T09:10:00;100862.50;;;1.05;74.08
42067;BME280;27734;47.028;28.820;2023-01-29T09:12:31;100855.11;;;1.10;74.01
42067;BME280;27734;47.028;28.820;2023-01-29T09:15:03;100854.14;;;1.19;75.21
42067;BME280;27734;47.028;28.820;2023-01-29T09:17:34;100846.63;;;1.22;73.32
42067;BME280;27734;47.028;28.820;2023-01-29T09:20:07;100854.86;;;1.29;73.53
42067;BME280;27734;47.028;28.820;2023-01-29T09:22:40;100851.27;;;1.27;71.42
42067;BME280;27734;47.028;28.820;2023-01-29T09:25:12;100848.92;;;1.30;73.47
42067;BME280;27734;47.028;28.820;2023-01-29T09:27:43;100857.21;;;1.25;72.25
42067;BME280;27734;47.028;28.820;2023-01-29T09:30:15;100858.78;;;1.23;71.28
42067;BME280;27734;47.028;28.820;2023-01-29T09:32:47;100842.83;;;1.29;72.05
42067;BME280;27734;47.028;28.820;2023-01-29T09:35:18;100844.23;;;1.36;72.32
42067;BME280;27734;47.028;28.820;2023-01-29T09:37:50;100845.59;;;1.42;72.86
42067;BME280;27734;47.028;28.820;2023-01-29T09:40:26;100848.19;;;1.42;71.80
42067;BME280;27734;47.028;28.820;2023-01-29T09:43:03;100848.19;;;1.42;71.96
42067;BME280;27734;47.028;28.820;2023-01-29T09:45:36;100862.93;;;1.43;72.25
42067;BME280;27734;47.028;28.820;2023-01-29T09:48:09;100849.20;;;1.44;71.90
42067;BME280;27734;47.028;28.820;2023-01-29T09:50:45;100855.53;;;1.48;72.71
42067;BME280;27734;47.028;28.820;2023-01-29T09:53:20;100847.09;;;1.51;72.97
42067;BME280;27734;47.028;28.820;2023-01-29T09:55:55;100844.73;;;1.54;72.84
42067;BME280;27734;47.028;28.820;2023-01-29T09:58:32;100844.50;;;1.51;72.35
42067;BME280;27734;47.028;28.820;2023-01-29T10:01:12;100843.19;;;1.56;73.28
42067;BME280;27734;47.028;28.820;2023-01-29T10:03:58;100838.22;;;1.59;73.57
42067;BME280;27734;47.028;28.820;2023-01-29T10:06:44;100837.69;;;1.63;73.58
42067;BME280;27734;47.028;28.820;2023-01-29T10:12:31;100852.85;;;1.58;72.74
42067;BME280;27734;47.028;28.820;2023-01-29T10:15:18;100850.13;;;1.45;72.12
42067;BME280;27734;47.028;28.820;2023-01-29T10:18:09;100842.53;;;1.36;72.92
42067;BME280;27734;47.028;28.820;2023-01-29T10:20:52;100836.48;;;1.36;72.79
42067;BME280;27734;47.028;28.820;2023-01-29T10:23:30;100857.81;;;1.33;73.50
42067;BME280;27734;47.028;28.820;2023-01-29T10:26:02;100834.78;;;1.36;72.89
42067;BME280;27734;47.028;28.820;2023-01-29T10:28:36;100837.78;;;1.53;73.42
42067;BME280;27734;47.028;28.820;2023-01-29T10:31:14;100833.38;;;1.52;72.17
42067;BME280;27734;47.028;28.820;2023-01-29T10:33:50;100832.67;;;1.42;71.58
42067;BME280;27734;47.028;28.820;2023-01-29T10:36:25;100839.30;;;1.39;71.16
42067;BME280;27734;47.028;28.820;2023-01-29T10:38:58;100830.98;;;1.43;71.86
42067;BME280;27734;47.028;28.820;2023-01-29T10:41:45;100835.79;;;1.38;71.24
42067;BME280;27734;47.028;28.820;2023-01-29T10:44:26;100820.84;;;1.34;71.23
42067;BME280;27734;47.028;28.820;2023-01-29T10:47:11;100819.44;;;1.28;71.51
42067;BME280;27734;47.028;28.820;2023-01-29T10:50:04;100827.02;;;1.36;72.05
42067;BME280;27734;47.028;28.820;2023-01-29T10:52:49;100826.73;;;1.43;71.25
42067;BME280;27734;47.028;28.820;2023-01-29T10:55:39;100821.04;;;1.59;72.26
42067;BME280;27734;47.028;28.820;2023-01-29T10:58:21;100814.57;;;1.88;70.21
42067;BME280;27734;47.028;28.820;2023-01-29T11:00:56;100813.83;;;2.01;69.38
42067;BME280;27734;47.028;28.820;2023-01-29T11:03:29;100801.46;;;2.09;69.57
42067;BME280;27734;47.028;28.820;2023-01-29T11:06:08;100807.96;;;2.04;68.04
42067;BME280;27734;47.028;28.820;2023-01-29T11:08:45;100801.44;;;1.97;68.46
42067;BME280;27734;47.028;28.820;2023-01-29T11:11:23;100803.33;;;1.88;69.10
42067;BME280;27734;47.028;28.820;2023-01-29T11:13:59;100806.34;;;1.82;69.06
42067;BME280;27734;47.028;28.820;2023-01-29T11:16:43;100796.00;;;1.82;69.22
42067;BME280;27734;47.028;28.820;2023-01-29T11:19:16;100790.05;;;1.83;70.42
42067;BME280;27734;47.028;28.820;2023-01-29T11:21:56;100795.11;;;1.82;70.08
42067;BME280;27734;47.028;28.820;2023-01-29T11:24:29;100812.52;;;1.72;68.44
42067;BME280;27734;47.028;28.820;2023-01-29T11:27:00;100792.17;;;1.77;69.26
42067;BME280;27734;47.028;28.820;2023-01-29T11:29:40;100796.57;;;1.78;69.56
42067;BME280;27734;47.028;28.820;2023-01-29T11:32:23;100785.98;;;1.75;69.78
42067;BME280;27734;47.028;28.820;2023-01-29T11:35:00;100797.77;;;1.71;69.62
42067;BME280;27734;47.028;28.820;2023-01-29T11:37:36;100793.28;;;1.69;69.60
42067;BME280;27734;47.028;28.820;2023-01-29T11:40:38;100804.30;;;1.66;69.89
42067;BME280;27734;47.028;28.820;2023-01-29T11:43:27;100791.78;;;1.60;69.88
42067;BME280;27734;47.028;28.820;2023-01-29T11:46:00;100785.59;;;1.58;70.72
42067;BME280;27734;47.028;28.820;2023-01-29T11:48:41;100793.48;;;1.60;70.31
42067;BME280;27734;47.028;28.820;2023-01-29T11:51:21;100790.35;;;1.64;71.19
42067;BME280;27734;47.028;28.820;2023-01-29T11:53:55;100807.98;;;1.58;70.02
42067;BME280;27734;47.028;28.820;2023-01-29T11:56:27;100791.34;;;1.54;69.92
42067;BME280;27734;47.028;28.820;2023-01-29T11:58:59;100802.81;;;1.58;70.81
42067;BME280;27734;47.028;28.820;2023-01-29T12:01:33;100791.89;;;1.62;70.57
42067;BME280;27734;47.028;28.820;2023-01-29T12:04:17;100791.12;;;1.63;70.60
42067;BME280;27734;47.028;28.820;2023-01-29T12:06:50;100799.00;;;1.65;70.32
42067;BME280;27734;47.028;28.820;2023-01-29T12:09:24;100791.23;;;1.65;70.17
42067;BME280;27734;47.028;28.820;2023-01-29T12:12:17;100790.35;;;1.64;69.82
42067;BME280;27734;47.028;28.820;2023-01-29T12:18:02;100782.02;;;1.68;69.86
42067;BME280;27734;47.028;28.820;2023-01-29T12:20:40;100788.53;;;1.63;69.66
42067;BME280;27734;47.028;28.820;2023-01-29T12:23:24;100796.18;;;1.61;69.65
42067;BME280;27734;47.028;28.820;2023-01-29T12:26:01;100788.30;;;1.60;69.68
42067;BME280;27734;47.028;28.820;2023-01-29T12:28:49;100791.78;;;1.60;69.98
42067;BME280;27734;47.028;28.820;2023-01-29T12:31:28;100786.06;;;1.65;70.73
42067;BME280;27734;47.028;28.820;2023-01-29T12:34:07;100778.88;;;1.72;70.05
42067;BME280;27734;47.028;28.820;2023-01-29T12:36:42;100782.71;;;1.77;70.05
42067;BME280;27734;47.028;28.820;2023-01-29T12:39:22;100784.44;;;1.89;70.66
42067;BME280;27734;47.028;28.820;2023-01-29T12:41:57;100788.27;;;1.94;69.91
42067;BME280;27734;47.028;28.820;2023-01-29T12:44:32;100791.52;;;1.91;69.90
42067;BME280;27734;47.028;28.820;2023-01-29T12:47:20;100780.58;;;1.84;68.58
42067;BME280;27734;47.028;28.820;2023-01-29T12:49:56;100776.77;;;1.78;69.15
42067;BME280;27734;47.028;28.820;2023-01-29T12:52:38;100778.45;;;1.78;69.60
42067;BME280;27734;47.028;28.820;2023-01-29T12:55:14;100781.16;;;1.79;69.69
42067;BME280;27734;47.028;28.820;2023-01-29T12:57:52;100803.17;;;1.74;68.59
42067;BME280;27734;47.028;28.820;2023-01-29T13:00:26;100784.48;;;1.67;68.49
42067;BME280;27734;47.028;28.820;2023-01-29T13:03:06;100791.12;;;1.63;68.50
42067;BME280;27734;47.028;28.820;2023-01-29T13:05:40;100779.77;;;1.61;68.82
42067;BME280;27734;47.028;28.820;2023-01-29T13:08:18;100803.59;;;1.57;68.26
42067;BME280;27734;47.028;28.820;2023-01-29T13:10:51;100791.23;;;1.53;69.00
42067;BME280;27734;47.028;28.820;2023-01-29T13:13:29;100790.76;;;1.47;69.13
42067;BME280;27734;47.028;28.820;2023-01-29T13:16:04;100795.70;;;1.43;69.41
42067;BME280;27734;47.028;28.820;2023-01-29T13:18:45;100787.02;;;1.43;69.52
42067;BME280;27734;47.028;28.820;2023-01-29T13:21:19;100785.11;;;1.40;69.97
42067;BME280;27734;47.028;28.820;2023-01-29T13:23:52;100792.06;;;1.41;70.24
42067;BME280;27734;47.028;28.820;2023-01-29T13:26:26;100791.71;;;1.37;70.90
42067;BME280;27734;47.028;28.820;2023-01-29T13:28:58;100793.94;;;1.32;70.74
42067;BME280;27734;47.028;28.820;2023-01-29T13:31:32;100785.95;;;1.29;70.58
42067;BME280;27734;47.028;28.820;2023-01-29T13:34:06;100795.05;;;1.24;72.07
42067;BME280;27734;47.028;28.820;2023-01-29T13:36:42;100793.11;;;1.21;70.97